createdAt,value
2023-12-22T00:00:30.016Z,4.27
2023-12-22T00:03:18.358Z,4.23
2023-12-22T00:05:46.903Z,4.19
2023-12-22T00:08:15.106Z,4.16
2023-12-22T00:10:43.456Z,4.13
2023-12-22T00:13:11.882Z,4.11
2023-12-22T00:15:40.237Z,4.10
2023-12-22T00:18:08.507Z,4.08
2023-12-22T00:20:37.600Z,4.07
2023-12-22T00:23:05.786Z,4.05
2023-12-22T00:25:34.130Z,4.04
2023-12-22T00:28:02.346Z,4.03
2023-12-22T00:30:30.655Z,4.05
2023-12-22T00:32:59.033Z,4.14
2023-12-22T00:35:27.515Z,4.26
2023-12-22T00:37:55.883Z,4.32
2023-12-22T00:40:24.298Z,4.41
2023-12-22T00:42:52.658Z,4.43
2023-12-22T00:45:21.135Z,4.47
2023-12-22T00:47:49.611Z,4.53
2023-12-22T00:50:18.658Z,4.63
2023-12-22T00:52:47.044Z,4.75
2023-12-22T00:55:15.848Z,4.87
2023-12-22T00:57:44.406Z,4.99
2023-12-22T01:00:13.667Z,5.09
2023-12-22T01:02:42.040Z,5.16
2023-12-22T01:05:10.594Z,5.24
2023-12-22T01:07:39.237Z,5.31
2023-12-22T01:10:08.290Z,5.38
2023-12-22T01:12:36.591Z,5.46
2023-12-22T01:15:05.877Z,5.51
2023-12-22T01:17:34.189Z,5.59
2023-12-22T01:20:02.581Z,5.64
2023-12-22T01:22:32.469Z,5.69
2023-12-22T01:25:01.183Z,5.74
2023-12-22T01:27:29.688Z,5.80
2023-12-22T01:29:58.139Z,5.84
2023-12-22T01:32:26.378Z,5.88
2023-12-22T01:34:54.759Z,5.91
2023-12-22T01:37:24.778Z,5.92
2023-12-22T01:39:52.945Z,5.95
2023-12-22T01:42:21.374Z,5.95
2023-12-22T01:44:49.644Z,5.95
2023-12-22T01:47:18.168Z,5.93
2023-12-22T01:49:46.771Z,5.94
2023-12-22T01:52:16.393Z,5.97
2023-12-22T01:54:44.734Z,5.99
2023-12-22T01:57:18.903Z,5.99
2023-12-22T01:59:49.893Z,5.98
2023-12-22T02:02:18.397Z,5.98
2023-12-22T02:04:48.231Z,5.97
2023-12-22T02:07:17.015Z,5.96
2023-12-22T02:09:45.345Z,5.95
2023-12-22T02:12:13.639Z,5.91
2023-12-22T02:14:42.211Z,5.86
2023-12-22T02:17:34.189Z,5.83
2023-12-22T02:20:02.874Z,5.77
2023-12-22T02:22:31.692Z,5.73
2023-12-22T02:25:00.153Z,5.70
2023-12-22T02:27:34.607Z,5.69
2023-12-22T02:30:10.835Z,5.68
2023-12-22T02:32:43.333Z,5.66
2023-12-22T02:35:16.555Z,5.64
2023-12-22T02:37:48.464Z,5.64
2023-12-22T02:40:18.755Z,5.61
2023-12-22T02:42:48.127Z,5.60
2023-12-22T02:45:18.585Z,5.59
2023-12-22T02:47:48.172Z,5.59
2023-12-22T02:50:18.140Z,5.59
2023-12-22T02:52:46.492Z,5.57
2023-12-22T02:55:15.301Z,5.57
2023-12-22T02:57:43.889Z,5.58
2023-12-22T03:00:12.880Z,5.59
2023-12-22T03:02:41.305Z,5.59
2023-12-22T03:05:10.124Z,5.59
2023-12-22T03:07:38.407Z,5.59
2023-12-22T03:10:07.413Z,5.59
2023-12-22T03:12:35.741Z,5.57
2023-12-22T03:15:04.824Z,5.57
2023-12-22T03:17:33.172Z,5.57
2023-12-22T03:20:01.531Z,5.56
2023-12-22T03:22:29.914Z,5.54
2023-12-22T03:24:58.236Z,5.52
2023-12-22T03:27:26.408Z,5.50
2023-12-22T03:29:54.791Z,5.49
2023-12-22T03:32:23.023Z,5.50
2023-12-22T03:34:51.427Z,5.52
2023-12-22T03:37:19.843Z,5.58
2023-12-22T03:39:48.099Z,5.61
2023-12-22T03:42:16.354Z,5.64
2023-12-22T03:44:44.696Z,5.64
2023-12-22T03:47:13.097Z,5.65
2023-12-22T03:49:41.466Z,5.67
2023-12-22T03:52:09.810Z,5.73
2023-12-22T03:54:38.038Z,5.82
2023-12-22T03:57:06.336Z,5.92
2023-12-22T03:59:34.614Z,5.97
2023-12-22T04:02:03.595Z,6.05
2023-12-22T04:04:32.321Z,6.13
2023-12-22T04:07:00.890Z,6.18
2023-12-22T04:09:29.148Z,6.20
2023-12-22T04:11:57.340Z,6.20
2023-12-22T04:14:25.486Z,6.17
2023-12-22T04:16:54.547Z,6.12
2023-12-22T04:19:23.254Z,6.07
2023-12-22T04:21:51.670Z,6.02
2023-12-22T04:24:19.951Z,5.98
2023-12-22T04:26:48.420Z,5.95
2023-12-22T04:29:17.250Z,5.91
2023-12-22T04:31:46.244Z,5.89
2023-12-22T04:34:17.350Z,5.86
2023-12-22T04:36:45.774Z,5.84
2023-12-22T04:39:14.093Z,5.81
2023-12-22T04:41:42.733Z,5.81
2023-12-22T04:44:11.199Z,5.80
2023-12-22T04:46:39.498Z,5.80
2023-12-22T04:49:07.984Z,5.80
2023-12-22T04:51:36.343Z,5.79
2023-12-22T04:54:04.557Z,5.79
2023-12-22T04:56:33.642Z,5.79
2023-12-22T04:59:01.922Z,5.78
2023-12-22T05:01:30.333Z,5.77
2023-12-22T05:03:58.676Z,5.76
2023-12-22T05:06:27.041Z,5.79
2023-12-22T05:08:55.340Z,5.78
2023-12-22T05:11:24.139Z,5.78
2023-12-22T05:13:52.428Z,5.80
2023-12-22T05:16:21.630Z,5.79
2023-12-22T05:18:49.925Z,5.77
2023-12-22T05:21:18.169Z,5.76
2023-12-22T05:23:46.334Z,5.75
2023-12-22T05:26:21.745Z,5.73
2023-12-22T05:28:53.440Z,5.73
2023-12-22T05:31:21.737Z,5.72
2023-12-22T05:33:49.997Z,5.72
2023-12-22T05:36:18.684Z,5.74
2023-12-22T05:38:48.519Z,5.75
2023-12-22T05:41:16.739Z,5.75
2023-12-22T05:43:45.020Z,5.75
2023-12-22T05:46:13.322Z,5.73
2023-12-22T05:48:41.601Z,5.72
2023-12-22T05:51:14.767Z,5.70
2023-12-22T05:53:43.300Z,5.69
2023-12-22T05:56:23.758Z,5.68
2023-12-22T05:58:52.168Z,5.68
2023-12-22T06:01:20.506Z,5.67
2023-12-22T06:03:49.714Z,5.67
2023-12-22T06:06:19.928Z,5.66
2023-12-22T06:08:48.469Z,5.72
2023-12-22T06:11:19.279Z,5.75
2023-12-22T06:13:47.532Z,5.77
2023-12-22T06:16:16.281Z,5.78
2023-12-22T06:18:45.878Z,5.79
2023-12-22T06:21:14.164Z,5.83
2023-12-22T06:23:42.539Z,5.88
2023-12-22T06:26:12.859Z,5.94
2023-12-22T06:28:42.301Z,5.94
2023-12-22T06:31:22.185Z,5.93
2023-12-22T06:33:53.068Z,5.90
2023-12-22T06:36:26.286Z,5.93
2023-12-22T06:38:56.099Z,6.01
2023-12-22T06:41:28.183Z,6.12
2023-12-22T06:43:58.884Z,6.23
2023-12-22T06:46:28.104Z,6.37
2023-12-22T06:48:57.762Z,6.51
2023-12-22T06:51:27.691Z,6.64
2023-12-22T06:53:57.236Z,6.75
2023-12-22T06:56:27.753Z,6.82
2023-12-22T06:58:58.851Z,6.85
2023-12-22T07:01:29.958Z,6.88
2023-12-22T07:03:58.967Z,6.91
2023-12-22T07:06:29.489Z,6.93
2023-12-22T07:09:20.664Z,6.94
2023-12-22T07:11:54.156Z,6.97
2023-12-22T07:14:23.801Z,6.97
2023-12-22T07:16:52.334Z,6.98
2023-12-22T07:19:20.746Z,6.97
2023-12-22T07:21:49.080Z,7.00
2023-12-22T07:24:17.283Z,6.98
2023-12-22T07:26:48.089Z,6.98
2023-12-22T07:29:16.406Z,6.99
2023-12-22T07:31:46.496Z,7.03
2023-12-22T07:34:16.488Z,7.07
2023-12-22T07:36:51.212Z,7.10
2023-12-22T07:39:27.490Z,7.12
2023-12-22T07:41:56.676Z,7.14
2023-12-22T07:44:25.448Z,7.17
2023-12-22T07:47:02.727Z,7.20
2023-12-22T07:49:32.959Z,7.19
2023-12-22T07:52:04.055Z,7.18
2023-12-22T07:54:32.676Z,7.18
2023-12-22T07:57:02.132Z,7.19
2023-12-22T07:59:32.449Z,7.20
2023-12-22T08:02:01.982Z,7.23
2023-12-22T08:04:30.596Z,7.24
2023-12-22T08:06:59.290Z,7.28
2023-12-22T08:09:27.699Z,7.32
2023-12-22T08:11:58.333Z,7.36
2023-12-22T08:14:26.980Z,7.39
2023-12-22T08:16:55.288Z,7.42
2023-12-22T08:19:25.239Z,7.48
2023-12-22T08:21:56.314Z,7.54
2023-12-22T08:24:25.012Z,7.63
2023-12-22T08:26:53.613Z,7.73
2023-12-22T08:29:21.972Z,7.84
2023-12-22T08:31:50.318Z,7.97
2023-12-22T08:34:18.557Z,8.08
2023-12-22T08:36:47.419Z,8.17
2023-12-22T08:39:16.095Z,8.27
2023-12-22T08:41:45.115Z,8.36
2023-12-22T08:44:16.178Z,8.44
2023-12-22T08:46:44.891Z,8.54
2023-12-22T08:49:13.379Z,8.66
2023-12-22T08:51:42.742Z,8.68
2023-12-22T08:54:11.084Z,8.69
2023-12-22T08:56:39.463Z,8.71
2023-12-22T08:59:10.314Z,8.71
2023-12-22T09:01:39.081Z,8.68
2023-12-22T09:04:09.641Z,8.64
2023-12-22T09:06:38.514Z,8.59
2023-12-22T09:09:07.760Z,8.54
2023-12-22T09:11:36.489Z,8.48
2023-12-22T09:14:10.891Z,8.42
2023-12-22T09:16:39.731Z,8.36
2023-12-22T09:19:08.094Z,8.27
2023-12-22T09:21:36.727Z,8.20
2023-12-22T09:24:06.632Z,8.14
2023-12-22T09:26:34.943Z,8.10
2023-12-22T09:29:03.583Z,8.07
2023-12-22T09:31:31.944Z,8.04
2023-12-22T09:34:00.386Z,8.02
2023-12-22T09:36:28.908Z,8.00
2023-12-22T09:38:57.105Z,7.98
2023-12-22T09:41:25.307Z,7.92
2023-12-22T09:43:57.431Z,7.86
2023-12-22T09:46:28.042Z,7.81
2023-12-22T09:48:56.276Z,7.76
2023-12-22T09:51:24.506Z,7.74
2023-12-22T09:53:54.158Z,7.75
2023-12-22T09:56:25.210Z,7.78
2023-12-22T09:58:56.292Z,7.82
2023-12-22T10:01:26.263Z,7.87
2023-12-22T10:03:54.831Z,7.97
2023-12-22T10:06:23.290Z,8.05
2023-12-22T10:08:52.908Z,8.14
2023-12-22T10:11:23.168Z,8.24
2023-12-22T10:13:54.170Z,8.33
2023-12-22T10:16:23.004Z,8.39
2023-12-22T10:18:52.665Z,8.43
2023-12-22T10:21:21.058Z,8.45
2023-12-22T10:23:49.727Z,8.47
2023-12-22T10:26:18.523Z,8.48
2023-12-22T10:28:50.101Z,8.48
2023-12-22T10:31:19.009Z,8.48
2023-12-22T10:33:47.357Z,8.48
2023-12-22T10:36:16.308Z,8.48
2023-12-22T10:38:46.213Z,8.47
2023-12-22T10:41:14.686Z,8.46
2023-12-22T10:43:43.227Z,8.45
2023-12-22T10:46:14.373Z,8.45
2023-12-22T10:48:42.952Z,8.44
2023-12-22T10:51:12.332Z,8.45
2023-12-22T10:53:44.284Z,8.49
2023-12-22T10:56:13.223Z,8.55
2023-12-22T10:58:43.993Z,8.62
2023-12-22T11:01:15.476Z,8.70
2023-12-22T11:03:46.203Z,8.77
2023-12-22T11:06:17.538Z,8.88
2023-12-22T11:08:48.277Z,8.99
2023-12-22T11:11:31.024Z,9.07
2023-12-22T11:14:00.878Z,9.14
2023-12-22T11:16:30.772Z,9.17
2023-12-22T11:19:00.442Z,9.20
2023-12-22T11:21:32.293Z,9.25
2023-12-22T11:24:01.513Z,9.28
2023-12-22T11:26:30.763Z,9.30
2023-12-22T11:29:00.657Z,9.31
2023-12-22T11:31:32.818Z,9.33
2023-12-22T11:34:09.731Z,9.32
2023-12-22T11:36:42.169Z,9.31
2023-12-22T11:39:10.472Z,9.29
2023-12-22T11:41:40.756Z,9.29
2023-12-22T11:44:09.977Z,9.28
2023-12-22T11:46:38.719Z,9.25
2023-12-22T11:49:08.232Z,9.18
2023-12-22T11:51:37.066Z,9.08
2023-12-22T11:54:05.516Z,8.89
2023-12-22T11:56:35.960Z,8.57
2023-12-22T11:59:04.273Z,8.26
2023-12-22T12:01:39.583Z,8.06
2023-12-22T12:04:08.098Z,7.74
2023-12-22T12:06:38.540Z,7.52
2023-12-22T12:09:11.233Z,7.36
2023-12-22T12:11:59.647Z,7.14
2023-12-22T12:14:32.856Z,6.98
2023-12-22T12:17:12.056Z,6.75
2023-12-22T12:19:43.753Z,6.55
2023-12-22T12:22:15.129Z,6.36
2023-12-22T12:24:44.249Z,6.20
2023-12-22T12:27:12.834Z,6.09
2023-12-22T12:29:41.250Z,5.89
2023-12-22T12:32:09.977Z,5.68
2023-12-22T12:34:39.269Z,5.37
2023-12-22T12:37:08.148Z,5.11
2023-12-22T12:39:38.497Z,4.96
2023-12-22T12:42:09.704Z,4.86
2023-12-22T12:44:39.012Z,4.76
2023-12-22T12:47:16.865Z,4.66
2023-12-22T12:49:45.657Z,4.53
2023-12-22T12:52:17.230Z,4.53
2023-12-22T12:54:46.440Z,4.51
2023-12-22T12:57:16.966Z,4.50
2023-12-22T12:59:52.367Z,4.47
2023-12-22T13:02:25.503Z,4.43
2023-12-22T13:04:53.954Z,4.39
2023-12-22T13:07:27.156Z,4.31
2023-12-22T13:09:57.561Z,4.35
2023-12-22T13:12:27.535Z,4.43
2023-12-22T13:14:55.850Z,4.48
2023-12-22T13:17:24.528Z,4.54
2023-12-22T13:19:53.440Z,4.61
2023-12-22T13:22:21.850Z,4.68
2023-12-22T13:24:58.152Z,4.74
2023-12-22T13:27:26.509Z,4.77
2023-12-22T13:29:55.517Z,4.78
2023-12-22T13:32:29.240Z,4.81
2023-12-22T13:34:58.638Z,4.81
2023-12-22T13:37:32.214Z,4.79
2023-12-22T13:40:01.431Z,4.78
2023-12-22T13:42:30.071Z,4.76
2023-12-22T13:44:58.452Z,4.74
2023-12-22T13:47:28.157Z,4.66
2023-12-22T13:49:59.081Z,4.56
2023-12-22T13:52:38.155Z,4.39
2023-12-22T13:55:13.553Z,4.37
2023-12-22T13:57:41.926Z,4.31
2023-12-22T14:00:25.409Z,4.23
2023-12-22T14:02:54.586Z,4.18
2023-12-22T14:05:23.186Z,4.13
2023-12-22T14:07:52.528Z,4.08
2023-12-22T14:10:21.386Z,3.98
2023-12-22T14:12:49.594Z,3.88
2023-12-22T14:15:18.738Z,3.77
2023-12-22T14:17:48.159Z,3.66
2023-12-22T14:20:16.930Z,3.55
2023-12-22T14:22:45.564Z,3.46
2023-12-22T14:25:13.998Z,3.38
2023-12-22T14:27:42.597Z,3.29
2023-12-22T14:30:11.757Z,3.16
2023-12-22T14:32:40.954Z,3.02
2023-12-22T14:35:09.261Z,2.89
2023-12-22T14:37:38.235Z,2.76
2023-12-22T14:40:07.205Z,2.64
2023-12-22T14:42:35.444Z,2.52
2023-12-22T14:45:04.253Z,2.43
2023-12-22T14:47:32.771Z,2.35
2023-12-22T14:50:05.170Z,2.26
2023-12-22T14:52:34.125Z,2.17
2023-12-22T14:55:02.870Z,2.08
2023-12-22T14:57:31.466Z,1.98
2023-12-22T15:00:00.623Z,1.89
2023-12-22T15:02:29.698Z,1.80
2023-12-22T15:05:01.285Z,1.68
2023-12-22T15:07:30.418Z,1.61
2023-12-22T15:10:00.484Z,1.52
2023-12-22T15:12:33.835Z,1.44
2023-12-22T15:15:03.054Z,1.38
2023-12-22T15:17:34.741Z,1.29
2023-12-22T15:20:12.312Z,1.20
2023-12-22T15:22:41.766Z,1.17
2023-12-22T15:25:10.236Z,1.15
2023-12-22T15:27:40.159Z,1.12
2023-12-22T15:30:08.813Z,1.08
2023-12-22T15:32:37.109Z,1.05
2023-12-22T15:35:05.819Z,1.03
2023-12-22T15:37:36.363Z,0.95
2023-12-22T15:40:05.423Z,0.86
2023-12-22T15:42:33.744Z,0.86
2023-12-22T15:45:01.998Z,0.88
2023-12-22T15:47:30.363Z,0.89
2023-12-22T15:49:58.746Z,0.93
2023-12-22T15:52:27.090Z,0.96
2023-12-22T15:54:55.335Z,0.89
2023-12-22T15:57:23.548Z,0.84
2023-12-22T15:59:52.476Z,0.87
2023-12-22T16:02:20.873Z,0.90
2023-12-22T16:04:49.157Z,0.87
2023-12-22T16:07:17.419Z,0.87
2023-12-22T16:09:45.624Z,0.81
2023-12-22T16:12:13.833Z,0.78
2023-12-22T16:14:42.533Z,0.71
2023-12-22T16:17:10.877Z,0.65
2023-12-22T16:19:40.775Z,0.58
2023-12-22T16:22:08.997Z,0.54
2023-12-22T16:24:40.548Z,0.46
2023-12-22T16:27:08.871Z,0.35
2023-12-22T16:29:41.013Z,0.24
2023-12-22T16:32:12.287Z,0.09
2023-12-22T16:34:48.213Z,-0.07
2023-12-22T16:37:18.029Z,-0.20
2023-12-22T16:39:54.346Z,-0.31
2023-12-22T16:42:23.001Z,-0.39
2023-12-22T16:44:52.103Z,-0.46
2023-12-22T16:47:20.751Z,-0.50
2023-12-22T16:49:49.493Z,-0.53
2023-12-22T16:52:18.253Z,-0.56
2023-12-22T16:54:46.682Z,-0.64
2023-12-22T16:57:16.332Z,-0.72
2023-12-22T16:59:44.527Z,-0.80
2023-12-22T17:02:27.466Z,-0.87
2023-12-22T17:05:01.908Z,-0.90
2023-12-22T17:07:34.075Z,-0.92
2023-12-22T17:10:05.486Z,-0.95
2023-12-22T17:12:34.524Z,-1.00
2023-12-22T17:15:05.709Z,-1.05
2023-12-22T17:17:34.818Z,-1.10
2023-12-22T17:20:05.213Z,-1.16
2023-12-22T17:22:33.720Z,-1.22
2023-12-22T17:25:02.392Z,-1.22
2023-12-22T17:27:30.805Z,-1.24
2023-12-22T17:29:59.104Z,-1.23
2023-12-22T17:32:27.332Z,-1.19
2023-12-22T17:34:55.616Z,-1.16
2023-12-22T17:37:24.077Z,-1.12
2023-12-22T17:39:52.264Z,-1.09
2023-12-22T17:42:20.454Z,-1.07
2023-12-22T17:44:48.760Z,-1.02
2023-12-22T17:47:16.977Z,-0.97
2023-12-22T17:49:45.225Z,-0.91
2023-12-22T17:52:13.501Z,-0.85
2023-12-22T17:54:41.702Z,-0.89
2023-12-22T17:57:13.829Z,-0.93
2023-12-22T17:59:42.575Z,-0.90
2023-12-22T18:02:17.143Z,-0.86
2023-12-22T18:04:45.489Z,-0.85
2023-12-22T18:07:13.864Z,-0.90
2023-12-22T18:09:42.140Z,-0.98
2023-12-22T18:12:10.516Z,-1.04
2023-12-22T18:14:38.896Z,-1.03
2023-12-22T18:17:07.226Z,-1.07
2023-12-22T18:19:36.356Z,-1.04
2023-12-22T18:22:04.662Z,-1.04
2023-12-22T18:24:32.894Z,-1.12
2023-12-22T18:27:01.216Z,-1.22
2023-12-22T18:29:29.398Z,-1.31
2023-12-22T18:31:57.863Z,-1.39
2023-12-22T18:34:26.340Z,-1.48
2023-12-22T18:36:54.913Z,-1.55
2023-12-22T18:39:23.603Z,-1.62
2023-12-22T18:41:52.032Z,-1.65
2023-12-22T18:47:06.777Z,-1.73
2023-12-22T18:49:35.301Z,-1.77
2023-12-22T18:52:04.182Z,-1.82
2023-12-22T18:54:32.491Z,-1.93
2023-12-22T18:57:00.708Z,-2.02
2023-12-22T18:59:29.215Z,-2.08
2023-12-22T19:02:15.112Z,-2.12
2023-12-22T19:04:47.104Z,-2.15
2023-12-22T19:07:15.620Z,-2.19
2023-12-22T19:09:44.710Z,-2.23
2023-12-22T19:12:13.077Z,-2.25
2023-12-22T19:14:41.493Z,-2.32
2023-12-22T19:17:09.834Z,-2.38
2023-12-22T19:19:38.172Z,-2.43
2023-12-22T19:22:06.491Z,-2.45
2023-12-22T19:24:35.004Z,-2.46
2023-12-22T19:27:03.954Z,-2.47
2023-12-22T19:29:32.345Z,-2.48
2023-12-22T19:32:00.937Z,-2.50
2023-12-22T19:34:31.231Z,-2.50
2023-12-22T19:36:59.648Z,-2.48
2023-12-22T19:39:28.001Z,-2.44
2023-12-22T19:41:56.192Z,-2.37
2023-12-22T19:44:24.548Z,-2.30
2023-12-22T19:46:52.894Z,-2.24
2023-12-22T19:49:24.212Z,-2.20
2023-12-22T19:51:52.650Z,-2.16
2023-12-22T19:54:20.863Z,-2.13
2023-12-22T19:56:49.405Z,-2.10
2023-12-22T19:59:17.706Z,-2.07
2023-12-22T20:01:46.833Z,-2.02
2023-12-22T20:04:15.884Z,-1.99
2023-12-22T20:06:45.913Z,-1.94
2023-12-22T20:09:14.340Z,-1.91
2023-12-22T20:11:43.243Z,-1.90
2023-12-22T20:14:12.280Z,-1.80
2023-12-22T20:16:40.766Z,-1.75
2023-12-22T20:19:09.708Z,-1.80
2023-12-22T20:21:38.227Z,-1.82
2023-12-22T20:24:07.248Z,-1.79
2023-12-22T20:26:36.203Z,-1.76
2023-12-22T20:29:04.562Z,-1.72
2023-12-22T20:31:34.813Z,-1.68
2023-12-22T20:34:03.173Z,-1.66
2023-12-22T20:36:31.871Z,-1.66
2023-12-22T20:39:00.541Z,-1.67
2023-12-22T20:41:29.281Z,-1.72
2023-12-22T20:43:57.745Z,-1.75
2023-12-22T20:46:26.117Z,-1.80
2023-12-22T20:48:54.642Z,-1.83
2023-12-22T20:51:23.153Z,-1.87
2023-12-22T20:53:51.531Z,-1.86
2023-12-22T20:56:24.740Z,-1.90
2023-12-22T20:58:53.570Z,-1.89
2023-12-22T21:01:22.474Z,-1.84
2023-12-22T21:03:50.805Z,-1.76
2023-12-22T21:06:19.779Z,-1.66
2023-12-22T21:08:48.953Z,-1.59
2023-12-22T21:11:26.595Z,-1.58
2023-12-22T21:13:55.732Z,-1.64
2023-12-22T21:16:24.222Z,-1.64
2023-12-22T21:18:52.592Z,-1.65
2023-12-22T21:21:21.095Z,-1.64
2023-12-22T21:23:49.388Z,-1.62
2023-12-22T21:26:24.956Z,-1.60
2023-12-22T21:28:55.682Z,-1.58
2023-12-22T21:31:26.332Z,-1.48
2023-12-22T21:33:55.000Z,-1.36
2023-12-22T21:36:24.586Z,-1.33
2023-12-22T21:38:54.070Z,-1.33
2023-12-22T21:41:23.850Z,-1.31
2023-12-22T21:43:52.433Z,-1.27
2023-12-22T21:46:20.976Z,-1.18
2023-12-22T21:51:36.041Z,-1.01
2023-12-22T21:54:04.423Z,-0.94
2023-12-22T21:56:32.825Z,-0.87
2023-12-22T21:59:01.643Z,-0.82
2023-12-22T22:01:30.302Z,-0.77
2023-12-22T22:03:58.599Z,-0.70
2023-12-22T22:06:28.114Z,-0.57
2023-12-22T22:08:56.286Z,-0.47
2023-12-22T22:11:24.454Z,-0.39
2023-12-22T22:13:52.808Z,-0.27
2023-12-22T22:16:21.080Z,-0.04
2023-12-22T22:18:49.707Z,0.15
2023-12-22T22:21:17.967Z,0.36
2023-12-22T22:23:46.742Z,0.55
2023-12-22T22:26:15.439Z,0.68
2023-12-22T22:28:44.880Z,0.77
2023-12-22T22:31:13.083Z,0.85
2023-12-22T22:33:47.217Z,0.94
2023-12-22T22:36:16.963Z,1.10
2023-12-22T22:38:45.761Z,1.24
2023-12-22T22:41:14.103Z,1.33
2023-12-22T22:43:42.520Z,1.43
2023-12-22T22:46:15.024Z,1.51
2023-12-22T22:48:43.809Z,1.59
2023-12-22T22:51:23.586Z,1.64
2023-12-22T22:53:53.085Z,1.67
2023-12-22T22:56:22.070Z,1.67
2023-12-22T22:58:50.321Z,1.64
2023-12-22T23:01:18.621Z,1.62
2023-12-22T23:03:46.833Z,1.63
2023-12-22T23:06:15.181Z,1.64
2023-12-22T23:08:43.695Z,1.67
2023-12-22T23:11:12.476Z,1.68
2023-12-22T23:13:40.747Z,1.69
2023-12-22T23:16:09.067Z,1.69
2023-12-22T23:18:37.421Z,1.72
2023-12-22T23:21:08.594Z,1.78
2023-12-22T23:23:36.826Z,1.83
2023-12-22T23:26:05.430Z,1.88
2023-12-22T23:28:33.838Z,1.91
2023-12-22T23:31:04.157Z,1.93
2023-12-22T23:33:32.658Z,1.95
2023-12-22T23:36:09.611Z,1.96
2023-12-22T23:38:42.604Z,1.99
2023-12-22T23:41:11.077Z,1.99
2023-12-22T23:43:40.719Z,1.99
2023-12-22T23:46:09.035Z,2.00
2023-12-22T23:48:38.365Z,1.98
2023-12-22T23:51:07.560Z,1.99
2023-12-22T23:53:35.958Z,1.98
2023-12-22T23:56:04.486Z,1.98
2023-12-22T23:58:32.820Z,1.93
